Time;durP1;ratioP1;P1;durP2;ratioP2;P2;SDS_P1;SDS_P2;PMS_P1;PMS_P2;Temp;Humidity;BMP_temperature;BMP_pressure;BME280_temperature;BME280_humidity;BME280_pressure;Samples;Min_cycle;Max_cycle;Signal;HPM_P1;HPM_P2
2023/07/09 00:01:23;;;;;;;;;8.50;8.00;;;;;22.95;47.17;101408.22;110249;1265;19354;-38
2023/07/09 00:03:53;;;;;;;;;8.00;8.00;;;;;23.00;47.17;101405.61;110206;1250;20324;-38
2023/07/09 00:06:20;;;;;;;;;8.00;8.00;;;;;22.93;47.30;101406.06;110187;1264;20043;-39
2023/07/09 00:08:48;;;;;;;;;11.00;11.00;;;;;22.90;47.37;101411.31;110250;1250;20792;-37
2023/07/09 00:11:15;;;;;;;;;11.00;11.00;;;;;22.91;47.41;101410.83;110271;1261;19833;-38
2023/07/09 00:13:43;;;;;;;;;16.00;13.50;;;;;22.91;47.53;101411.23;110286;1257;20017;-38
2023/07/09 00:16:10;;;;;;;;;18.00;13.00;;;;;22.85;47.73;101408.80;110270;1250;20667;-38
2023/07/09 00:18:37;;;;;;;;;11.00;10.00;;;;;22.84;47.59;101410.41;110262;1249;20020;-37
2023/07/09 00:21:05;;;;;;;;;12.00;10.00;;;;;22.79;47.79;101406.05;110244;1264;20106;-38
2023/07/09 00:23:33;;;;;;;;;9.00;8.00;;;;;22.78;47.75;101404.92;110198;1249;22845;-38
2023/07/09 00:26:03;;;;;;;;;11.33;11.33;;;;;22.77;47.80;101409.19;110134;1265;19997;-38
2023/07/09 00:28:30;;;;;;;;;15.00;15.00;;;;;22.72;47.93;101408.52;110115;1264;22575;-38
2023/07/09 00:30:58;;;;;;;;;18.67;18.00;;;;;22.76;47.97;101398.20;110229;1264;19390;-37
2023/07/09 00:33:31;;;;;;;;;21.00;19.00;;;;;22.74;47.97;101406.46;110202;1264;18556;-37
2023/07/09 00:35:58;;;;;;;;;18.50;12.50;;;;;22.72;48.01;101405.55;110242;1256;20037;-38
2023/07/09 00:38:26;;;;;;;;;18.00;16.00;;;;;22.69;48.05;101404.29;110299;1250;21849;-38
2023/07/09 00:40:53;;;;;;;;;13.00;13.00;;;;;22.64;47.98;101405.29;110295;1250;19981;-39
2023/07/09 00:43:21;;;;;;;;;12.00;12.00;;;;;22.68;48.05;101406.00;110215;1264;22002;-38
2023/07/09 00:45:48;;;;;;;;;14.00;12.00;;;;;22.64;48.25;101409.49;110209;1250;20743;-38
2023/07/09 00:48:16;;;;;;;;;9.00;8.00;;;;;22.53;48.33;101409.29;110225;1265;19209;-37
2023/07/09 00:50:45;;;;;;;;;8.00;8.00;;;;;22.56;48.22;101405.70;110293;1257;20153;-37
2023/07/09 00:53:17;;;;;;;;;7.00;7.00;;;;;22.50;48.47;101406.43;110290;1256;21003;-37
2023/07/09 00:55:45;;;;;;;;;8.00;8.00;;;;;22.48;48.68;101403.70;110267;1250;19730;-39
2023/07/09 00:58:15;;;;;;;;;7.00;7.00;;;;;22.47;48.64;101402.95;110190;1250;20017;-39
2023/07/09 01:00:46;;;;;;;;;7.00;7.00;;;;;22.43;48.74;101406.61;110202;1264;19377;-38
2023/07/09 01:03:13;;;;;;;;;9.00;8.00;;;;;22.46;48.74;101401.52;110234;1258;22924;-38
2023/07/09 01:05:41;;;;;;;;;11.00;8.00;;;;;22.45;48.71;101400.55;110213;1257;20266;-38
2023/07/09 01:08:09;;;;;;;;;8.00;7.00;;;;;22.43;48.68;101402.05;110158;1250;20732;-38
2023/07/09 01:10:40;;;;;;;;;8.00;8.00;;;;;22.32;48.93;101405.32;110233;1264;18537;-39
2023/07/09 01:13:09;;;;;;;;;8.00;8.00;;;;;22.30;48.99;101406.61;110033;1265;23927;-38
2023/07/09 01:15:37;;;;;;;;;7.00;7.00;;;;;22.37;49.06;101404.97;110207;1264;19404;-38
2023/07/09 01:18:04;;;;;;;;;8.00;8.00;;;;;22.41;49.05;101401.09;110145;1250;19621;-38
2023/07/09 01:20:33;;;;;;;;;10.00;8.00;;;;;22.40;48.92;101402.76;110138;1249;20402;-39
2023/07/09 01:23:00;;;;;;;;;7.50;7.50;;;;;22.37;48.90;101399.85;110160;1250;20778;-38
2023/07/09 01:25:29;;;;;;;;;9.00;9.00;;;;;22.32;49.19;101394.39;110252;1250;20075;-38
2023/07/09 01:27:56;;;;;;;;;8.00;7.00;;;;;22.22;49.47;101395.90;110256;1264;18660;-38
2023/07/09 01:30:24;;;;;;;;;8.00;8.00;;;;;22.26;49.26;101404.33;110179;1256;19225;-38
2023/07/09 01:32:51;;;;;;;;;7.00;7.00;;;;;22.24;49.39;101412.79;110167;1264;18531;-38
2023/07/09 01:35:19;;;;;;;;;7.00;7.00;;;;;22.22;49.40;101416.52;110248;1264;18594;-38
2023/07/09 01:37:47;;;;;;;;;8.00;8.00;;;;;22.15;49.61;101426.30;110214;1257;21117;-38
2023/07/09 01:40:15;;;;;;;;;8.50;8.50;;;;;22.20;49.49;101424.29;110317;1249;18459;-38
2023/07/09 01:42:42;;;;;;;;;8.00;8.00;;;;;22.18;49.75;101425.33;110262;1249;22336;-39
2023/07/09 01:45:11;;;;;;;;;7.00;7.00;;;;;22.22;49.48;101419.72;110186;1248;20783;-39
2023/07/09 01:47:38;;;;;;;;;7.00;7.00;;;;;22.19;49.43;101418.63;110258;1250;19809;-38
2023/07/09 01:50:06;;;;;;;;;9.00;8.00;;;;;22.13;49.78;101420.54;110233;1250;20045;-38
2023/07/09 01:52:33;;;;;;;;;8.50;7.50;;;;;22.10;49.66;101419.19;110280;1257;20788;-38
2023/07/09 01:55:02;;;;;;;;;12.00;12.00;;;;;22.12;49.78;101417.20;110237;1250;19942;-39
2023/07/09 01:57:32;;;;;;;;;11.67;11.33;;;;;22.09;49.87;101419.98;110165;1265;18663;-38
2023/07/09 02:00:00;;;;;;;;;29.00;28.00;;;;;22.08;50.03;101417.71;110272;1249;20786;-39
2023/07/09 02:02:27;;;;;;;;;36.00;32.00;;;;;22.01;50.27;101423.09;110257;1257;20030;-38
2023/07/09 02:04:55;;;;;;;;;29.67;25.67;;;;;22.03;50.05;101422.65;110211;1264;20318;-39
2023/07/09 02:07:22;;;;;;;;;18.00;17.00;;;;;22.04;50.09;101425.52;110252;1250;21138;-39
2023/07/09 02:09:50;;;;;;;;;11.00;11.00;;;;;22.05;50.12;101426.30;110234;1249;19995;-38
2023/07/09 02:12:17;;;;;;;;;11.50;11.50;;;;;22.01;50.19;101426.02;110219;1264;18731;-39
2023/07/09 02:14:45;;;;;;;;;9.00;9.00;;;;;21.99;50.12;101426.80;110204;1256;21851;-38
2023/07/09 02:17:12;;;;;;;;;8.00;7.67;;;;;21.96;50.13;101431.16;110253;1250;18587;-39
2023/07/09 02:19:39;;;;;;;;;11.00;9.00;;;;;22.00;50.26;101432.36;110278;1264;19406;-39
2023/07/09 02:22:07;;;;;;;;;13.00;11.50;;;;;21.98;50.16;101433.29;110267;1250;20850;-41
2023/07/09 02:24:34;;;;;;;;;14.00;14.00;;;;;21.92;50.37;101436.89;110232;1256;21192;-38
2023/07/09 02:27:02;;;;;;;;;22.67;21.67;;;;;21.90;50.47;101435.96;110172;1264;20300;-38
2023/07/09 02:29:29;;;;;;;;;34.50;31.00;;;;;21.85;50.66;101437.25;110196;1256;21907;-39
2023/07/09 02:31:57;;;;;;;;;24.00;21.00;;;;;21.85;50.59;101444.66;110192;1250;20064;-39
2023/07/09 02:34:25;;;;;;;;;17.00;15.00;;;;;21.76;50.69;101444.60;110170;1264;20338;-38
2023/07/09 02:36:52;;;;;;;;;14.00;13.67;;;;;21.74;50.88;101443.52;110284;1264;19346;-39
2023/07/09 02:39:20;;;;;;;;;12.00;10.67;;;;;21.70;50.85;101441.98;110251;1251;21250;-38
2023/07/09 02:41:47;;;;;;;;;10.67;10.33;;;;;21.72;50.87;101443.60;110211;1250;20144;-38
2023/07/09 02:44:15;;;;;;;;;11.00;11.00;;;;;21.70;50.92;101447.41;110156;1250;20698;-39
2023/07/09 02:46:42;;;;;;;;;7.00;7.00;;;;;21.68;51.07;101445.13;110192;1256;23813;-39
2023/07/09 02:49:10;;;;;;;;;8.00;8.00;;;;;21.65;50.82;101448.31;110209;1250;20371;-38
2023/07/09 02:51:37;;;;;;;;;10.50;10.50;;;;;21.59;51.15;101451.91;110213;1257;20916;-39
2023/07/09 02:54:04;;;;;;;;;11.00;10.50;;;;;21.58;51.09;101450.20;110274;1250;19611;-38
2023/07/09 02:56:32;;;;;;;;;10.00;8.00;;;;;21.69;50.88;101450.65;110265;1249;20146;-39
2023/07/09 02:58:59;;;;;;;;;10.50;10.00;;;;;21.65;50.93;101449.78;110221;1250;20836;-38
2023/07/09 03:01:27;;;;;;;;;7.50;7.50;;;;;21.59;51.28;101455.30;110205;1250;19840;-40
2023/07/09 03:03:54;;;;;;;;;8.00;8.00;;;;;21.57;51.16;101452.45;110175;1264;18607;-39
2023/07/09 03:06:22;;;;;;;;;8.00;8.00;;;;;21.52;51.24;101460.11;110230;1257;20646;-40
2023/07/09 03:08:49;;;;;;;;;8.00;8.00;;;;;21.53;51.19;101462.09;110250;1250;20110;-39
2023/07/09 03:11:17;;;;;;;;;8.33;7.67;;;;;21.54;51.31;101458.91;110250;1250;19951;-39
2023/07/09 03:13:44;;;;;;;;;13.33;11.00;;;;;21.61;51.20;101455.33;110197;1257;21682;-39
2023/07/09 03:16:11;;;;;;;;;16.67;14.33;;;;;21.60;51.47;101456.89;110209;1249;19653;-39
2023/07/09 03:18:39;;;;;;;;;17.00;15.00;;;;;21.58;51.40;101464.84;110205;1257;20135;-38
2023/07/09 03:21:06;;;;;;;;;17.00;14.00;;;;;21.56;51.43;101472.73;110196;1250;22814;-38
2023/07/09 03:23:34;;;;;;;;;14.00;11.00;;;;;21.56;51.67;101472.60;110275;1249;19964;-38
2023/07/09 03:26:01;;;;;;;;;10.00;10.00;;;;;21.47;51.74;101473.40;110235;1250;18676;-38
2023/07/09 03:28:28;;;;;;;;;11.00;11.00;;;;;21.48;51.79;101473.62;110230;1264;19378;-38
2023/07/09 03:30:56;;;;;;;;;12.00;10.00;;;;;21.49;51.70;101479.90;110237;1251;20262;-37
2023/07/09 03:33:23;;;;;;;;;10.00;8.00;;;;;21.50;51.64;101473.16;110207;1250;20118;-38
2023/07/09 03:35:51;;;;;;;;;8.00;8.00;;;;;21.52;51.73;101474.11;110194;1250;21989;-39
2023/07/09 03:38:18;;;;;;;;;10.00;10.00;;;;;21.56;51.74;101474.06;110254;1249;20134;-38
2023/07/09 03:40:46;;;;;;;;;10.00;10.00;;;;;21.51;51.94;101471.28;110255;1250;20194;-37
2023/07/09 03:43:13;;;;;;;;;10.00;8.00;;;;;21.54;51.78;101470.34;110273;1256;20799;-37
2023/07/09 03:45:40;;;;;;;;;8.00;8.00;;;;;21.53;51.84;101472.92;110232;1265;18770;-37
2023/07/09 03:48:08;;;;;;;;;8.00;8.00;;;;;21.43;52.26;101477.56;110302;1248;22594;-38
2023/07/09 03:50:35;;;;;;;;;10.50;10.50;;;;;21.45;52.28;101486.66;110274;1250;21983;-37
2023/07/09 03:53:03;;;;;;;;;10.00;10.00;;;;;21.42;52.24;101487.52;110212;1256;19525;-38
2023/07/09 03:55:30;;;;;;;;;10.00;10.00;;;;;21.49;52.11;101490.64;110165;1250;20091;-38
2023/07/09 03:57:58;;;;;;;;;10.00;10.00;;;;;21.46;52.25;101491.23;110244;1250;20740;-38
2023/07/09 04:00:25;;;;;;;;;10.00;9.00;;;;;21.46;52.31;101491.48;110274;1265;22796;-37
2023/07/09 04:02:53;;;;;;;;;7.50;7.50;;;;;21.48;52.39;101489.79;110277;1264;18670;-37
2023/07/09 04:05:20;;;;;;;;;8.00;8.00;;;;;21.56;52.26;101489.17;110235;1265;22016;-39
2023/07/09 04:07:48;;;;;;;;;10.00;10.00;;;;;21.62;52.09;101491.45;110198;1257;22726;-38
2023/07/09 04:10:15;;;;;;;;;8.00;8.00;;;;;21.55;52.24;101488.83;110247;1249;20124;-38
2023/07/09 04:12:42;;;;;;;;;11.00;11.00;;;;;21.58;52.29;101486.21;110266;1250;22389;-37
2023/07/09 04:15:10;;;;;;;;;17.50;16.00;;;;;21.53;52.53;101486.70;110264;1250;19625;-38
2023/07/09 04:17:37;;;;;;;;;17.00;14.00;;;;;21.55;52.52;101484.98;110271;1250;20148;-37
2023/07/09 04:20:07;;;;;;;;;17.00;14.00;;;;;21.54;52.46;101482.38;110271;1250;20736;-38
2023/07/09 04:22:35;;;;;;;;;14.00;14.00;;;;;21.55;52.59;101481.96;110260;1264;19974;-39
2023/07/09 04:25:03;;;;;;;;;10.50;10.00;;;;;21.52;52.52;101481.34;110184;1249;20099;-38
2023/07/09 04:27:30;;;;;;;;;10.50;10.50;;;;;21.49;52.79;101484.81;110237;1248;20766;-38
2023/07/09 04:29:58;;;;;;;;;9.00;8.00;;;;;21.54;52.87;101490.18;110176;1249;20008;-39
2023/07/09 04:32:25;;;;;;;;;11.00;10.00;;;;;21.58;52.78;101491.30;110200;1250;20204;-39
2023/07/09 04:34:53;;;;;;;;;9.00;8.00;;;;;21.57;52.59;101495.55;110233;1250;20802;-39
2023/07/09 04:37:20;;;;;;;;;10.50;10.00;;;;;21.56;52.71;101498.01;110276;1250;20018;-38
2023/07/09 04:39:49;;;;;;;;;10.00;10.00;;;;;21.50;52.94;101501.01;110188;1264;21158;-38
2023/07/09 04:42:16;;;;;;;;;8.00;8.00;;;;;21.52;52.97;101499.02;110235;1264;20706;-39
2023/07/09 04:44:44;;;;;;;;;12.00;11.00;;;;;21.61;52.71;101494.48;110185;1249;20039;-39
2023/07/09 04:47:12;;;;;;;;;13.00;13.00;;;;;21.64;52.68;101496.12;110225;1264;18695;-39
2023/07/09 04:49:39;;;;;;;;;13.00;13.00;;;;;21.58;53.05;101498.70;110266;1256;20725;-38
2023/07/09 04:52:07;;;;;;;;;15.00;13.00;;;;;21.51;53.42;101498.33;110264;1250;19966;-39
2023/07/09 04:54:34;;;;;;;;;13.00;12.00;;;;;21.57;53.40;101497.39;110271;1250;20467;-40
2023/07/09 04:57:02;;;;;;;;;11.00;10.00;;;;;21.62;53.13;101499.98;110292;1250;22303;-40
2023/07/09 04:59:30;;;;;;;;;26.50;23.00;;;;;21.61;53.21;101498.36;110224;1264;18547;-39
2023/07/09 05:01:57;;;;;;;;;17.00;17.00;;;;;21.59;53.08;101497.10;110195;1250;23052;-38
2023/07/09 05:04:24;;;;;;;;;18.00;17.00;;;;;21.63;53.21;101501.14;110240;1250;20809;-38
2023/07/09 05:06:52;;;;;;;;;18.50;16.00;;;;;21.71;53.42;101497.68;110248;1250;19967;-38
2023/07/09 05:09:19;;;;;;;;;23.00;20.00;;;;;21.71;53.05;101498.04;110256;1250;21772;-37
2023/07/09 05:11:47;;;;;;;;;11.00;10.50;;;;;21.57;53.49;101502.80;110233;1248;20679;-38
2023/07/09 05:14:14;;;;;;;;;18.33;18.00;;;;;21.65;53.31;101511.61;110222;1249;20355;-38
2023/07/09 05:16:42;;;;;;;;;20.00;17.00;;;;;21.76;52.87;101507.36;110180;1263;18658;-38
2023/07/09 05:19:09;;;;;;;;;21.00;20.00;;;;;21.79;52.79;101513.55;110180;1256;20914;-39
2023/07/09 05:21:36;;;;;;;;;19.00;19.00;;;;;21.81;53.06;101518.46;110225;1250;19990;-39
2023/07/09 05:24:04;;;;;;;;;16.00;14.00;;;;;21.87;53.02;101525.45;110235;1249;18672;-38
2023/07/09 05:26:31;;;;;;;;;13.00;11.00;;;;;21.92;52.77;101525.80;110180;1256;20677;-38
2023/07/09 05:28:59;;;;;;;;;11.00;8.00;;;;;21.91;52.89;101523.58;110278;1250;20335;-38
2023/07/09 05:31:26;;;;;;;;;14.67;12.33;;;;;21.94;52.59;101518.00;110215;1264;18668;-38
2023/07/09 05:33:53;;;;;;;;;12.00;11.00;;;;;22.02;52.47;101522.17;110214;1250;20774;-38
2023/07/09 05:36:21;;;;;;;;;11.00;10.50;;;;;22.09;52.33;101520.17;110189;1257;20967;-38
2023/07/09 05:38:49;;;;;;;;;13.00;11.67;;;;;22.04;52.24;101516.66;110206;1250;20578;-38
2023/07/09 05:41:17;;;;;;;;;13.50;13.50;;;;;22.10;52.24;101515.67;110254;1264;19326;-39
2023/07/09 05:43:45;;;;;;;;;11.00;10.00;;;;;22.18;52.28;101516.48;110230;1249;20440;-38
2023/07/09 05:46:12;;;;;;;;;8.00;8.00;;;;;22.26;52.35;101514.36;110319;1264;22985;-38
2023/07/09 05:48:40;;;;;;;;;12.00;11.00;;;;;22.27;52.23;101515.85;110223;1264;19675;-38
2023/07/09 05:51:07;;;;;;;;;7.67;7.67;;;;;22.25;52.33;101512.44;110197;1257;19631;-38
2023/07/09 05:53:35;;;;;;;;;8.00;8.00;;;;;22.33;52.09;101512.59;110230;1250;20005;-39
2023/07/09 05:56:02;;;;;;;;;13.00;12.00;;;;;22.39;51.97;101511.36;110141;1264;19578;-38
2023/07/09 05:58:30;;;;;;;;;17.33;13.33;;;;;22.46;52.04;101510.99;110273;1257;19512;-38
2023/07/09 06:00:57;;;;;;;;;12.00;11.00;;;;;22.56;51.55;101508.27;110225;1249;22021;-38
2023/07/09 06:03:25;;;;;;;;;9.00;9.00;;;;;22.63;51.08;101504.69;110161;1249;20814;-38
2023/07/09 06:05:52;;;;;;;;;11.00;11.00;;;;;22.59;51.02;101509.40;110182;1257;20536;-38
2023/07/09 06:08:19;;;;;;;;;11.00;9.00;;;;;22.62;50.99;101510.31;110232;1264;18634;-39
2023/07/09 06:10:47;;;;;;;;;12.00;11.00;;;;;22.64;50.76;101512.64;110208;1250;19347;-38
2023/07/09 06:13:14;;;;;;;;;8.00;8.00;;;;;22.74;50.19;101511.37;110214;1256;19911;-39
2023/07/09 06:15:42;;;;;;;;;11.00;9.00;;;;;22.64;49.89;101510.14;110202;1248;23037;-38
2023/07/09 06:18:09;;;;;;;;;12.00;11.00;;;;;22.72;49.85;101504.30;110193;1250;19308;-39
2023/07/09 06:20:36;;;;;;;;;9.00;9.00;;;;;22.88;49.33;101502.30;110188;1257;20002;-39
2023/07/09 06:23:04;;;;;;;;;14.00;11.50;;;;;23.00;49.43;101499.88;110234;1250;20108;-40
2023/07/09 06:25:31;;;;;;;;;7.00;7.00;;;;;23.00;49.28;101496.22;110204;1257;20586;-40
2023/07/09 06:27:59;;;;;;;;;9.00;8.00;;;;;23.04;49.29;101497.05;110195;1264;18554;-41
2023/07/09 06:30:26;;;;;;;;;8.00;8.00;;;;;23.09;49.22;101493.55;110209;1250;18698;-40
2023/07/09 06:32:53;;;;;;;;;10.00;8.50;;;;;23.15;49.01;101497.45;110203;1250;21403;-40
2023/07/09 06:35:21;;;;;;;;;8.00;8.00;;;;;23.17;49.14;101491.04;110164;1251;19651;-41
2023/07/09 06:37:48;;;;;;;;;6.00;6.00;;;;;23.26;48.79;101496.23;110188;1250;20040;-42
2023/07/09 06:40:16;;;;;;;;;6.00;5.00;;;;;23.31;48.64;101495.39;110127;1264;20676;-40
2023/07/09 06:42:44;;;;;;;;;7.00;6.50;;;;;23.33;48.60;101492.30;110229;1256;22700;-41
2023/07/09 06:45:11;;;;;;;;;6.00;6.00;;;;;23.31;48.31;101492.75;110289;1250;20298;-40
2023/07/09 06:47:39;;;;;;;;;6.00;6.00;;;;;23.34;48.18;101495.45;110253;1250;22023;-39
2023/07/09 06:50:06;;;;;;;;;6.00;6.00;;;;;23.33;48.33;101492.16;110243;1257;19864;-39
2023/07/09 06:52:34;;;;;;;;;8.00;8.00;;;;;23.39;47.94;101495.73;110201;1250;20065;-41
2023/07/09 06:55:01;;;;;;;;;6.00;6.00;;;;;23.44;47.94;101495.58;110192;1264;19828;-40
2023/07/09 06:57:28;;;;;;;;;47.50;35.50;;;;;23.57;47.94;101501.33;110198;1264;18785;-40
2023/07/09 06:59:56;;;;;;;;;43.67;35.00;;;;;23.60;47.94;101498.84;110208;1250;18814;-39
2023/07/09 07:02:24;;;;;;;;;58.00;48.00;;;;;23.62;47.85;101500.25;110132;1264;175358;-40
2023/07/09 07:04:51;;;;;;;;;36.00;29.00;;;;;23.62;47.78;101502.08;110243;1264;18577;-40
2023/07/09 07:07:19;;;;;;;;;28.33;25.00;;;;;23.66;47.48;101501.45;110270;1264;18711;-40
2023/07/09 07:09:46;;;;;;;;;22.00;21.00;;;;;23.68;47.52;101502.23;110161;1257;21926;-39
2023/07/09 07:12:13;;;;;;;;;23.00;21.00;;;;;23.70;47.56;101502.65;110223;1264;18533;-40
2023/07/09 07:14:41;;;;;;;;;18.00;15.00;;;;;23.73;47.73;101505.05;110260;1250;23329;-40
2023/07/09 07:17:08;;;;;;;;;20.00;16.33;;;;;23.76;47.70;101498.52;110217;1250;20981;-40
2023/07/09 07:19:36;;;;;;;;;15.50;15.50;;;;;23.77;47.48;101499.98;110207;1265;18542;-40
2023/07/09 07:22:03;;;;;;;;;19.00;15.00;;;;;23.82;47.73;101500.16;110277;1250;20189;-39
2023/07/09 07:24:31;;;;;;;;;64.00;47.67;;;;;23.85;47.82;101502.00;110245;1264;19435;-40
2023/07/09 07:26:58;;;;;;;;;63.00;47.00;;;;;23.87;47.85;101505.77;110275;1256;19971;-38
2023/07/09 07:29:26;;;;;;;;;64.00;46.50;;;;;23.93;47.88;101510.55;110251;1250;20227;-39
2023/07/09 07:31:53;;;;;;;;;68.00;52.00;;;;;23.96;47.68;101514.66;110308;1264;20748;-39
2023/07/09 07:34:20;;;;;;;;;63.00;48.00;;;;;23.98;47.79;101511.41;110237;1264;18568;-38
2023/07/09 07:36:48;;;;;;;;;53.00;43.50;;;;;23.99;47.85;101502.38;110232;1250;21629;-40
2023/07/09 07:39:15;;;;;;;;;43.67;35.67;;;;;23.97;47.90;101500.98;110194;1265;19235;-39
2023/07/09 07:41:43;;;;;;;;;32.50;28.50;;;;;23.99;48.07;101496.44;110135;1250;20067;-40
2023/07/09 07:44:10;;;;;;;;;36.50;30.50;;;;;23.99;48.14;101501.41;110179;1250;20039;-38
2023/07/09 07:46:38;;;;;;;;;26.00;23.00;;;;;23.97;47.99;101499.52;110234;1250;21262;-41
2023/07/09 07:49:05;;;;;;;;;33.33;27.00;;;;;23.93;48.19;101494.02;110191;1256;19967;-38
2023/07/09 07:51:33;;;;;;;;;27.00;24.00;;;;;23.92;48.10;101491.54;110133;1249;19508;-39
2023/07/09 07:54:01;;;;;;;;;26.00;21.00;;;;;23.92;47.95;101497.17;110214;1250;19339;-39
2023/07/09 07:56:28;;;;;;;;;22.00;18.67;;;;;23.92;47.99;101495.71;110254;1250;20021;-39
2023/07/09 07:58:56;;;;;;;;;22.50;19.50;;;;;23.91;47.98;101493.59;110234;1264;20022;-39
2023/07/09 08:01:23;;;;;;;;;17.00;15.00;;;;;23.91;47.84;101495.02;110246;1264;19314;-39
2023/07/09 08:03:51;;;;;;;;;18.33;13.67;;;;;23.91;47.64;101499.65;110217;1264;18702;-38
2023/07/09 08:06:18;;;;;;;;;15.00;15.00;;;;;23.96;47.78;101494.98;110184;1264;22162;-39
2023/07/09 08:08:46;;;;;;;;;12.00;12.00;;;;;23.98;47.59;101493.94;110194;1250;20761;-39
2023/07/09 08:11:13;;;;;;;;;10.33;9.33;;;;;23.97;47.57;101489.73;110181;1257;20069;-38
2023/07/09 08:13:41;;;;;;;;;13.00;10.00;;;;;23.98;47.73;101494.48;110180;1264;19120;-38
2023/07/09 08:16:08;;;;;;;;;9.00;9.00;;;;;23.99;47.65;101493.02;110102;1256;20632;-38
2023/07/09 08:18:36;;;;;;;;;10.00;10.00;;;;;24.00;47.78;101494.34;110139;1264;20163;-38
2023/07/09 08:21:03;;;;;;;;;9.00;8.00;;;;;24.00;47.75;101493.66;110113;1256;20167;-39
2023/07/09 08:23:31;;;;;;;;;8.00;8.00;;;;;24.00;47.66;101501.33;110096;1249;23436;-39
2023/07/09 08:25:58;;;;;;;;;8.00;6.00;;;;;23.99;47.68;101491.92;110159;1250;19596;-37
2023/07/09 08:28:26;;;;;;;;;9.00;8.00;;;;;24.00;47.99;101485.83;110133;1264;21304;-38
2023/07/09 08:30:54;;;;;;;;;8.00;6.00;;;;;24.00;47.82;101487.81;110158;1264;20688;-38
2023/07/09 08:33:21;;;;;;;;;6.00;5.00;;;;;24.01;47.83;101484.18;110177;1264;18416;-39
2023/07/09 08:35:48;;;;;;;;;5.50;5.00;;;;;24.02;47.50;101485.52;110188;1257;19967;-38
2023/07/09 08:38:16;;;;;;;;;7.33;6.00;;;;;24.03;47.52;101488.05;110215;1250;22022;-37
2023/07/09 08:40:43;;;;;;;;;5.00;5.00;;;;;24.02;47.49;101491.37;110228;1250;20014;-38
2023/07/09 08:43:11;;;;;;;;;6.00;6.00;;;;;24.02;47.41;101486.23;110187;1257;19942;-38
2023/07/09 08:45:38;;;;;;;;;4.00;4.00;;;;;24.05;47.34;101485.64;110114;1264;19341;-38
2023/07/09 08:48:06;;;;;;;;;3.00;3.00;;;;;24.03;47.24;101484.95;110175;1265;19888;-37
2023/07/09 08:50:34;;;;;;;;;4.00;4.00;;;;;24.03;47.19;101479.07;110264;1264;18765;-38
2023/07/09 08:53:01;;;;;;;;;6.00;4.50;;;;;24.03;47.27;101480.30;110253;1264;19264;-38
2023/07/09 08:55:29;;;;;;;;;4.50;4.50;;;;;24.03;47.33;101482.02;110249;1250;19636;-38
2023/07/09 08:57:56;;;;;;;;;4.00;4.00;;;;;24.03;47.23;101479.29;110252;1248;18649;-38
2023/07/09 09:00:23;;;;;;;;;5.50;4.50;;;;;24.04;47.29;101478.08;110201;1250;20978;-39
2023/07/09 09:02:51;;;;;;;;;4.00;4.00;;;;;24.04;47.07;101475.85;110189;1249;22738;-39
2023/07/09 09:05:19;;;;;;;;;4.00;4.00;;;;;24.06;47.05;101471.71;110237;1264;18640;-40
2023/07/09 09:07:46;;;;;;;;;4.00;4.00;;;;;24.06;46.97;101479.66;110195;1257;19752;-39
2023/07/09 09:10:14;;;;;;;;;3.00;3.00;;;;;24.05;46.78;101479.36;110226;1250;19884;-39
2023/07/09 09:12:41;;;;;;;;;2.00;2.00;;;;;24.05;46.77;101477.34;110263;1264;18632;-39
2023/07/09 09:15:09;;;;;;;;;2.00;2.00;;;;;24.05;46.92;101478.81;110235;1250;20793;-39
2023/07/09 09:17:36;;;;;;;;;2.00;2.00;;;;;24.04;46.77;101479.81;110287;1264;18217;-39
2023/07/09 09:20:04;;;;;;;;;2.00;2.00;;;;;24.05;46.74;101482.98;110268;1264;19904;-39
2023/07/09 09:22:32;;;;;;;;;2.00;2.00;;;;;24.05;46.71;101475.95;110238;1264;19361;-39
2023/07/09 09:24:59;;;;;;;;;2.00;2.00;;;;;24.05;46.68;101472.44;110229;1264;20722;-37
2023/07/09 09:27:27;;;;;;;;;4.00;4.00;;;;;24.04;46.57;101477.91;110243;1264;18786;-40
2023/07/09 09:29:54;;;;;;;;;2.00;2.00;;;;;24.05;46.59;101474.64;110189;1265;20738;-38
2023/07/09 09:32:22;;;;;;;;;1.00;1.00;;;;;24.05;46.60;101473.85;110245;1250;19877;-36
2023/07/09 09:34:49;;;;;;;;;2.00;2.00;;;;;24.06;46.45;101472.00;110277;1250;19995;-39
2023/07/09 09:37:17;;;;;;;;;2.00;2.00;;;;;24.04;46.36;101468.86;110219;1265;19350;-39
2023/07/09 09:39:44;;;;;;;;;2.00;2.00;;;;;24.06;46.47;101469.42;110191;1250;18205;-38
2023/07/09 09:42:11;;;;;;;;;1.00;1.00;;;;;24.06;46.52;101469.95;110253;1250;20261;-39
2023/07/09 09:44:39;;;;;;;;;2.00;2.00;;;;;24.07;46.70;101469.99;110203;1257;20616;-40
2023/07/09 09:47:06;;;;;;;;;2.00;2.00;;;;;24.09;47.15;101465.89;110257;1250;19610;-39
2023/07/09 09:49:34;;;;;;;;;2.00;2.00;;;;;24.11;47.40;101464.36;110157;1257;20198;-40
2023/07/09 09:52:01;;;;;;;;;2.00;2.00;;;;;24.15;47.54;101458.45;110271;1257;20677;-40
2023/07/09 09:54:30;;;;;;;;;2.00;2.00;;;;;24.16;47.52;101457.63;110151;1259;21744;-40
2023/07/09 09:56:58;;;;;;;;;4.00;2.00;;;;;24.16;47.52;101452.83;110182;1264;18610;-40
2023/07/09 09:59:25;;;;;;;;;2.00;2.00;;;;;24.17;47.46;101455.79;110208;1264;19758;-40
2023/07/09 10:01:53;;;;;;;;;2.00;2.00;;;;;24.18;47.52;101450.59;110193;1249;19649;-40
2023/07/09 10:04:20;;;;;;;;;1.00;1.00;;;;;24.19;47.52;101445.17;110233;1250;20091;-40
2023/07/09 10:06:48;;;;;;;;;2.00;2.00;;;;;24.20;47.74;101444.69;110235;1250;20653;-40
2023/07/09 10:09:15;;;;;;;;;2.00;2.00;;;;;24.20;47.75;101445.23;110138;1264;18336;-40
2023/07/09 10:11:43;;;;;;;;;2.00;2.00;;;;;24.20;47.54;101444.27;110206;1264;18617;-40
2023/07/09 10:14:10;;;;;;;;;2.00;2.00;;;;;24.20;47.73;101440.61;110273;1264;19507;-39
2023/07/09 10:16:38;;;;;;;;;1.00;1.00;;;;;24.21;47.61;101444.70;110230;1250;19642;-39
2023/07/09 10:19:05;;;;;;;;;2.00;2.00;;;;;24.23;47.70;101449.62;110194;1264;18647;-38
2023/07/09 10:21:34;;;;;;;;;2.67;2.67;;;;;24.24;47.58;101454.10;110179;1257;20725;-41
2023/07/09 10:24:05;;;;;;;;;1.50;1.50;;;;;24.25;47.66;101454.53;110237;1264;19653;-40
2023/07/09 10:26:32;;;;;;;;;2.00;2.00;;;;;24.27;47.93;101453.39;110219;1264;19604;-40
2023/07/09 10:29:00;;;;;;;;;2.00;2.00;;;;;24.31;48.08;101454.77;110240;1264;20665;-38
2023/07/09 10:31:28;;;;;;;;;2.00;2.00;;;;;24.33;48.16;101457.95;110255;1265;19545;-40
2023/07/09 10:33:57;;;;;;;;;1.00;1.00;;;;;24.34;48.17;101455.27;110242;1264;18453;-41
2023/07/09 10:36:24;;;;;;;;;2.00;2.00;;;;;24.35;48.16;101454.08;110236;1265;20561;-39
2023/07/09 10:38:52;;;;;;;;;2.00;2.00;;;;;24.34;48.23;101456.88;110171;1256;23079;-40
2023/07/09 10:41:22;;;;;;;;;2.00;2.00;;;;;24.34;48.09;101452.16;110283;1264;18825;-41
2023/07/09 10:43:51;;;;;;;;;2.00;2.00;;;;;24.33;48.10;101468.05;110226;1265;20638;-38
2023/07/09 10:46:19;;;;;;;;;1.50;1.50;;;;;24.34;48.27;101465.34;110235;1250;18712;-40
2023/07/09 10:48:46;;;;;;;;;2.00;2.00;;;;;24.36;48.04;101460.03;110280;1264;19949;-39
2023/07/09 10:51:15;;;;;;;;;2.00;2.00;;;;;24.40;47.01;101457.16;110201;1264;20033;-38
2023/07/09 10:53:42;;;;;;;;;2.00;2.00;;;;;24.39;47.10;101464.23;110207;1264;19604;-38
2023/07/09 10:56:10;;;;;;;;;2.00;2.00;;;;;24.39;47.34;101464.19;110191;1250;19987;-40
2023/07/09 10:58:37;;;;;;;;;1.33;1.33;;;;;24.42;47.50;101468.79;110168;1264;20676;-39
2023/07/09 11:01:05;;;;;;;;;2.00;2.00;;;;;24.44;47.75;101469.08;110156;1264;19580;-39
2023/07/09 11:03:32;;;;;;;;;2.00;2.00;;;;;24.46;47.72;101465.23;110229;1264;18606;-40
2023/07/09 11:06:00;;;;;;;;;2.00;2.00;;;;;24.48;47.89;101461.98;110206;1250;20750;-39
2023/07/09 11:08:27;;;;;;;;;2.00;2.00;;;;;24.49;47.78;101463.91;110208;1264;19849;-40
2023/07/09 11:10:55;;;;;;;;;2.00;2.00;;;;;24.48;47.87;101457.44;110235;1264;19941;-41